sensor_id;sensor_type;location;lat;lon;timestamp;P1;durP1;ratioP1;P2;durP2;ratioP2
61739;SDS011;47645;45.288;12.038;2023-01-08T00:00:11;49.6;;;25.2;;
61739;SDS011;47645;45.288;12.038;2023-01-08T00:10:11;40.2;;;21.5;;
61739;SDS011;47645;45.288;12.038;2023-01-08T00:20:12;47.5;;;23.9;;
61739;SDS011;47645;45.288;12.038;2023-01-08T00:30:13;42.8;;;23.3;;
61739;SDS011;47645;45.288;12.038;2023-01-08T00:40:13;36.3;;;20.0;;
61739;SDS011;47645;45.288;12.038;2023-01-08T00:50:13;50.1;;;25.3;;
61739;SDS011;47645;45.288;12.038;2023-01-08T01:00:14;51.4;;;25.5;;
61739;SDS011;47645;45.288;12.038;2023-01-08T01:10:15;49.1;;;24.7;;
61739;SDS011;47645;45.288;12.038;2023-01-08T01:20:15;38.4;;;20.0;;
61739;SDS011;47645;45.288;12.038;2023-01-08T01:30:15;48.7;;;24.9;;
61739;SDS011;47645;45.288;12.038;2023-01-08T01:40:16;48.9;;;22.9;;
61739;SDS011;47645;45.288;12.038;2023-01-08T01:50:17;50.7;;;25.5;;
61739;SDS011;47645;45.288;12.038;2023-01-08T02:00:17;55.8;;;27.0;;
61739;SDS011;47645;45.288;12.038;2023-01-08T02:10:19;43.9;;;21.5;;
61739;SDS011;47645;45.288;12.038;2023-01-08T02:20:19;36.7;;;18.3;;
61739;SDS011;47645;45.288;12.038;2023-01-08T02:30:18;32.6;;;17.0;;
61739;SDS011;47645;45.288;12.038;2023-01-08T02:40:20;45.9;;;21.9;;
61739;SDS011;47645;45.288;12.038;2023-01-08T02:50:20;41.3;;;22.1;;
61739;SDS011;47645;45.288;12.038;2023-01-08T03:00:19;36.9;;;18.8;;
61739;SDS011;47645;45.288;12.038;2023-01-08T03:10:20;40.4;;;20.8;;
61739;SDS011;47645;45.288;12.038;2023-01-08T03:20:21;29.8;;;16.3;;
61739;SDS011;47645;45.288;12.038;2023-01-08T03:30:21;52.5;;;25.5;;
61739;SDS011;47645;45.288;12.038;2023-01-08T03:40:22;44.8;;;21.2;;
61739;SDS011;47645;45.288;12.038;2023-01-08T03:50:24;46.7;;;22.5;;
61739;SDS011;47645;45.288;12.038;2023-01-08T04:00:22;32.4;;;17.0;;
61739;SDS011;47645;45.288;12.038;2023-01-08T04:10:23;40.4;;;21.2;;
61739;SDS011;47645;45.288;12.038;2023-01-08T04:20:23;49.9;;;25.4;;
61739;SDS011;47645;45.288;12.038;2023-01-08T04:30:24;51.8;;;25.6;;
61739;SDS011;47645;45.288;12.038;2023-01-08T04:40:24;38.8;;;19.8;;
61739;SDS011;47645;45.288;12.038;2023-01-08T04:50:25;43.6;;;21.4;;
61739;SDS011;47645;45.288;12.038;2023-01-08T05:00:25;36.1;;;19.0;;
61739;SDS011;47645;45.288;12.038;2023-01-08T05:10:26;39.0;;;20.2;;
61739;SDS011;47645;45.288;12.038;2023-01-08T05:20:26;33.2;;;17.4;;
61739;SDS011;47645;45.288;12.038;2023-01-08T05:30:27;36.8;;;17.4;;
61739;SDS011;47645;45.288;12.038;2023-01-08T05:40:27;45.0;;;22.4;;
61739;SDS011;47645;45.288;12.038;2023-01-08T05:50:28;37.9;;;18.7;;
61739;SDS011;47645;45.288;12.038;2023-01-08T06:00:28;34.6;;;17.6;;
61739;SDS011;47645;45.288;12.038;2023-01-08T06:10:29;44.0;;;22.6;;
61739;SDS011;47645;45.288;12.038;2023-01-08T06:20:29;42.0;;;20.1;;
61739;SDS011;47645;45.288;12.038;2023-01-08T06:30:29;53.6;;;26.3;;
61739;SDS011;47645;45.288;12.038;2023-01-08T06:40:30;57.2;;;26.3;;
61739;SDS011;47645;45.288;12.038;2023-01-08T06:50:30;53.4;;;26.3;;
61739;SDS011;47645;45.288;12.038;2023-01-08T07:00:30;53.6;;;26.9;;
61739;SDS011;47645;45.288;12.038;2023-01-08T07:10:33;57.9;;;29.1;;
61739;SDS011;47645;45.288;12.038;2023-01-08T07:20:31;57.2;;;28.3;;
61739;SDS011;47645;45.288;12.038;2023-01-08T07:30:32;56.6;;;29.4;;
61739;SDS011;47645;45.288;12.038;2023-01-08T07:40:32;58.6;;;29.8;;
61739;SDS011;47645;45.288;12.038;2023-01-08T07:50:33;61.7;;;32.9;;
61739;SDS011;47645;45.288;12.038;2023-01-08T08:00:33;56.7;;;28.8;;
61739;SDS011;47645;45.288;12.038;2023-01-08T08:10:34;55.8;;;29.4;;
61739;SDS011;47645;45.288;12.038;2023-01-08T08:20:34;55.6;;;28.8;;
61739;SDS011;47645;45.288;12.038;2023-01-08T08:30:35;55.1;;;30.0;;
61739;SDS011;47645;45.288;12.038;2023-01-08T08:40:35;57.5;;;29.8;;
61739;SDS011;47645;45.288;12.038;2023-01-08T08:50:36;57.9;;;30.6;;
61739;SDS011;47645;45.288;12.038;2023-01-08T09:00:36;56.7;;;30.1;;
61739;SDS011;47645;45.288;12.038;2023-01-08T09:10:37;56.6;;;32.1;;
61739;SDS011;47645;45.288;12.038;2023-01-08T09:20:37;58.5;;;30.6;;
61739;SDS011;47645;45.288;12.038;2023-01-08T09:30:37;77.0;;;40.4;;
61739;SDS011;47645;45.288;12.038;2023-01-08T09:40:39;64.2;;;34.1;;
61739;SDS011;47645;45.288;12.038;2023-01-08T09:50:38;70.7;;;38.4;;
61739;SDS011;47645;45.288;12.038;2023-01-08T10:00:39;61.3;;;33.9;;
61739;SDS011;47645;45.288;12.038;2023-01-08T10:10:39;65.8;;;36.1;;
61739;SDS011;47645;45.288;12.038;2023-01-08T10:20:40;58.5;;;30.9;;
61739;SDS011;47645;45.288;12.038;2023-01-08T10:30:40;56.6;;;31.5;;
61739;SDS011;47645;45.288;12.038;2023-01-08T10:40:46;58.6;;;32.1;;
61739;SDS011;47645;45.288;12.038;2023-01-08T10:50:41;62.0;;;32.0;;
61739;SDS011;47645;45.288;12.038;2023-01-08T11:00:41;63.5;;;33.5;;
61739;SDS011;47645;45.288;12.038;2023-01-08T11:10:42;65.6;;;34.9;;
61739;SDS011;47645;45.288;12.038;2023-01-08T11:20:42;65.8;;;34.5;;
61739;SDS011;47645;45.288;12.038;2023-01-08T11:30:43;67.8;;;36.3;;
61739;SDS011;47645;45.288;12.038;2023-01-08T11:40:45;59.6;;;32.8;;
61739;SDS011;47645;45.288;12.038;2023-01-08T11:50:45;56.0;;;32.7;;
61739;SDS011;47645;45.288;12.038;2023-01-08T12:00:48;63.2;;;36.5;;
61739;SDS011;47645;45.288;12.038;2023-01-08T12:10:48;64.7;;;36.9;;
61739;SDS011;47645;45.288;12.038;2023-01-08T12:20:47;60.0;;;34.6;;
61739;SDS011;47645;45.288;12.038;2023-01-08T12:30:47;59.2;;;34.7;;
61739;SDS011;47645;45.288;12.038;2023-01-08T12:40:46;60.7;;;33.3;;
61739;SDS011;47645;45.288;12.038;2023-01-08T12:50:48;60.8;;;34.5;;
61739;SDS011;47645;45.288;12.038;2023-01-08T13:00:49;62.8;;;33.8;;
61739;SDS011;47645;45.288;12.038;2023-01-08T13:10:48;62.3;;;33.2;;
61739;SDS011;47645;45.288;12.038;2023-01-08T13:20:53;62.5;;;33.7;;
61739;SDS011;47645;45.288;12.038;2023-01-08T13:30:49;65.7;;;33.6;;
61739;SDS011;47645;45.288;12.038;2023-01-08T13:40:49;62.3;;;32.6;;
61739;SDS011;47645;45.288;12.038;2023-01-08T13:50:49;69.9;;;37.2;;
61739;SDS011;47645;45.288;12.038;2023-01-08T14:00:50;73.1;;;33.4;;
61739;SDS011;47645;45.288;12.038;2023-01-08T14:10:50;60.3;;;32.0;;
61739;SDS011;47645;45.288;12.038;2023-01-08T14:20:50;63.1;;;32.6;;
61739;SDS011;47645;45.288;12.038;2023-01-08T14:30:51;77.2;;;37.9;;
61739;SDS011;47645;45.288;12.038;2023-01-08T14:40:56;58.8;;;29.3;;
61739;SDS011;47645;45.288;12.038;2023-01-08T14:50:55;56.5;;;31.6;;
61739;SDS011;47645;45.288;12.038;2023-01-08T15:00:53;65.5;;;35.8;;
61739;SDS011;47645;45.288;12.038;2023-01-08T15:10:56;66.7;;;33.7;;
61739;SDS011;47645;45.288;12.038;2023-01-08T15:20:53;69.7;;;36.3;;
61739;SDS011;47645;45.288;12.038;2023-01-08T15:30:54;72.9;;;37.8;;
61739;SDS011;47645;45.288;12.038;2023-01-08T15:40:54;73.7;;;37.9;;
61739;SDS011;47645;45.288;12.038;2023-01-08T15:50:57;78.1;;;35.9;;
61739;SDS011;47645;45.288;12.038;2023-01-08T16:00:54;78.1;;;35.0;;
61739;SDS011;47645;45.288;12.038;2023-01-08T16:10:55;79.5;;;35.7;;
61739;SDS011;47645;45.288;12.038;2023-01-08T16:20:58;65.0;;;30.7;;
61739;SDS011;47645;45.288;12.038;2023-01-08T16:30:56;65.9;;;31.6;;
61739;SDS011;47645;45.288;12.038;2023-01-08T16:40:56;62.4;;;30.1;;
61739;SDS011;47645;45.288;12.038;2023-01-08T16:50:57;65.4;;;31.1;;
61739;SDS011;47645;45.288;12.038;2023-01-08T17:00:57;64.1;;;31.6;;
61739;SDS011;47645;45.288;12.038;2023-01-08T17:10:57;58.3;;;27.9;;
61739;SDS011;47645;45.288;12.038;2023-01-08T17:20:58;58.8;;;27.7;;
61739;SDS011;47645;45.288;12.038;2023-01-08T17:31:00;62.2;;;29.7;;
61739;SDS011;47645;45.288;12.038;2023-01-08T17:40:59;60.5;;;28.6;;
61739;SDS011;47645;45.288;12.038;2023-01-08T17:51:03;62.3;;;29.5;;
61739;SDS011;47645;45.288;12.038;2023-01-08T18:00:59;57.2;;;28.3;;
61739;SDS011;47645;45.288;12.038;2023-01-08T18:11:00;59.8;;;27.3;;
61739;SDS011;47645;45.288;12.038;2023-01-08T18:21:00;61.1;;;30.9;;
61739;SDS011;47645;45.288;12.038;2023-01-08T18:31:00;60.1;;;29.6;;
61739;SDS011;47645;45.288;12.038;2023-01-08T18:41:00;57.1;;;27.5;;
61739;SDS011;47645;45.288;12.038;2023-01-08T18:51:04;55.3;;;29.1;;
61739;SDS011;47645;45.288;12.038;2023-01-08T19:01:02;61.9;;;29.5;;
61739;SDS011;47645;45.288;12.038;2023-01-08T19:11:02;57.6;;;28.7;;
61739;SDS011;47645;45.288;12.038;2023-01-08T19:21:03;56.7;;;27.1;;
61739;SDS011;47645;45.288;12.038;2023-01-08T19:31:02;57.3;;;27.9;;
61739;SDS011;47645;45.288;12.038;2023-01-08T19:41:03;57.9;;;29.0;;
61739;SDS011;47645;45.288;12.038;2023-01-08T19:51:04;51.5;;;26.1;;
61739;SDS011;47645;45.288;12.038;2023-01-08T20:01:08;48.4;;;24.2;;
61739;SDS011;47645;45.288;12.038;2023-01-08T20:11:05;45.3;;;23.3;;
61739;SDS011;47645;45.288;12.038;2023-01-08T20:21:05;49.1;;;24.8;;
61739;SDS011;47645;45.288;12.038;2023-01-08T20:31:05;50.0;;;26.3;;
61739;SDS011;47645;45.288;12.038;2023-01-08T20:41:06;39.0;;;21.1;;
61739;SDS011;47645;45.288;12.038;2023-01-08T20:51:06;40.2;;;22.3;;
61739;SDS011;47645;45.288;12.038;2023-01-08T21:01:06;42.0;;;22.3;;
61739;SDS011;47645;45.288;12.038;2023-01-08T21:11:07;40.9;;;22.8;;
61739;SDS011;47645;45.288;12.038;2023-01-08T21:21:07;38.7;;;21.7;;
61739;SDS011;47645;45.288;12.038;2023-01-08T21:31:08;43.9;;;24.1;;
61739;SDS011;47645;45.288;12.038;2023-01-08T21:41:08;39.2;;;21.5;;
61739;SDS011;47645;45.288;12.038;2023-01-08T21:53:30;42.2;;;22.8;;
61739;SDS011;47645;45.288;12.038;2023-01-08T22:01:09;41.4;;;23.9;;
61739;SDS011;47645;45.288;12.038;2023-01-08T22:11:09;41.5;;;23.1;;
61739;SDS011;47645;45.288;12.038;2023-01-08T22:21:12;40.8;;;23.6;;
61739;SDS011;47645;45.288;12.038;2023-01-08T22:31:11;40.3;;;23.8;;
61739;SDS011;47645;45.288;12.038;2023-01-08T22:41:13;38.3;;;22.1;;
61739;SDS011;47645;45.288;12.038;2023-01-08T22:51:11;35.9;;;21.1;;
61739;SDS011;47645;45.288;12.038;2023-01-08T23:01:12;33.4;;;21.0;;
61739;SDS011;47645;45.288;12.038;2023-01-08T23:11:13;34.4;;;21.7;;
61739;SDS011;47645;45.288;12.038;2023-01-08T23:21:13;26.9;;;17.7;;
61739;SDS011;47645;45.288;12.038;2023-01-08T23:31:14;29.2;;;16.8;;
61739;SDS011;47645;45.288;12.038;2023-01-08T23:41:14;24.6;;;15.8;;
61739;SDS011;47645;45.288;12.038;2023-01-08T23:51:13;22.7;;;15.0;;
